Thursday, September 20, 2018, 10:43 PM EDT
Back to Local

KUUU, Newport State Airport

Location: Middletown, RI, United States Lat: 41.533
Local Time: 10:43 PM EDT ( 2:43 GMT) Lon: -71.283
Time Zone: US/Eastern Elev: 170 ft

Show me the last for .
Show Decoded

2018-09-20 21:53 METAR KUUU 210153Z AUTO 08006KT 10SM BKN050 16/13 A3029 RMK AO2 SLP256 T01610133
                 =
2018-09-20 20:53 METAR KUUU 210053Z AUTO 06006KT 10SM OVC047 16/14 A3028 RMK AO2 SLP253 T01610139
                 =
2018-09-20 19:53 METAR KUUU 202353Z AUTO 05004KT 10SM BKN035 OVC047 17/13 A3028 RMK AO2 SLP250
                 T01670133 10200 20161 53012 =
2018-09-20 18:53 METAR KUUU 202253Z AUTO 05004KT 10SM SCT035 16/13 A3026 RMK AO2 SLP244 T01610133
                 =
2018-09-20 17:53 METAR KUUU 202153Z AUTO 07008KT 10SM CLR 18/14 A3024 RMK AO2 SLP239 T01780139 =
2018-09-20 16:53 METAR KUUU 202053Z AUTO 04007KT 10SM BKN048 18/14 A3024 RMK AO2 SLP238 T01780144
                 53001 =
2018-09-20 15:53 METAR KUUU 201953Z AUTO 04010KT 10SM FEW016 OVC048 19/14 A3024 RMK AO2 SLP238
                 T01890144 =
2018-09-20 14:53 METAR KUUU 201853Z AUTO 05011KT 10SM FEW017 SCT022 BKN038 19/15 A3023 RMK AO2
                 SLP235 T01890150 =
2018-09-20 14:26 METAR KUUU 201826Z AUTO 05011KT 10SM FEW021 OVC033 19/14 A3023 RMK AO2 T01890144
                 =
2018-09-20 13:53 METAR KUUU 201753Z AUTO 02011KT 10SM SCT020 BKN027 BKN050 19/15 A3024 RMK AO2
                 SLP237 T01940150 10200 20161 58003 =
2018-09-20 13:24 METAR KUUU 201724Z AUTO 03012KT 10SM FEW018 BKN050 20/15 A3023 RMK AO2 T02000150
                 =
2018-09-20 12:53 METAR KUUU 201653Z AUTO 02011G17KT 10SM SCT016 BKN028 19/14 A3024 RMK AO2 SLP239
                 T01940144 =
2018-09-20 12:38 METAR KUUU 201638Z AUTO 01010KT 10SM SCT016 BKN025 BKN032 19/15 A3024 RMK AO2
                 T01940150 =
2018-09-20 11:53 METAR KUUU 201553Z AUTO 02010KT 10SM FEW017 BKN030 OVC035 19/15 A3024 RMK AO2
                 SLP240 T01890150 =
2018-09-20 11:51 METAR KUUU 201551Z AUTO 02009KT 10SM FEW017 BKN030 OVC035 19/15 A3025 RMK AO2 =
2018-09-20 11:38 METAR KUUU 201538Z AUTO 02013KT 10SM FEW017 BKN026 OVC034 18/14 A3025 RMK AO2
                 T01830144 =
2018-09-20 11:30 METAR KUUU 201530Z AUTO 01012G16KT 10SM FEW019 SCT026 OVC032 19/15 A3025 RMK AO2
                 T01890150 =
2018-09-20 11:17 METAR KUUU 201517Z AUTO 03015KT 10SM FEW020 BKN026 OVC034 18/14 A3025 RMK AO2
                 T01830144 =
2018-09-20 11:09 METAR KUUU 201509Z AUTO 01011KT 10SM SCT020 OVC031 19/14 A3024 RMK AO2 T01890139
                 =
2018-09-20 10:53 METAR KUUU 201453Z AUTO 01008KT 10SM BKN019 BKN033 OVC055 19/14 A3023 RMK AO2
                 SLP236 T01940144 51021 =
2018-09-20 10:26 METAR KUUU 201426Z AUTO 02010KT 10SM BKN019 19/15 A3023 RMK AO2 T01890150 =
2018-09-20 10:14 METAR KUUU 201414Z AUTO 03011G18KT 10SM SCT017 19/14 A3022 RMK AO2 T01890144 =
2018-09-20 09:53 METAR KUUU 201353Z AUTO 05012KT 10SM BKN016 19/15 A3021 RMK AO2 SLP230 T01890150
                 =
2018-09-20 09:20 METAR KUUU 201320Z AUTO 04011G18KT 10SM BKN015 OVC050 19/15 A3020 RMK AO2
                 T01890150 =
2018-09-20 08:53 METAR KUUU 201253Z AUTO 03013G18KT 10SM FEW013 OVC050 18/14 A3019 RMK AO2 SLP222
                 T01780144 =
2018-09-20 07:53 METAR KUUU 201153Z AUTO 02010KT 10SM FEW046 16/14 A3017 RMK AO2 SLP215 T01610144
                 10161 20144 53022 =
2018-09-20 06:53 METAR KUUU 201053Z AUTO 02008KT 10SM CLR 16/14 A3014 RMK AO2 SLP205 T01560139 =
2018-09-20 05:53 METAR KUUU 200953Z AUTO 03009KT 10SM CLR 15/14 A3013 RMK AO2 SLP199 T01500139 =
2018-09-20 04:53 METAR KUUU 200853Z AUTO 36007KT 10SM CLR 15/14 A3011 RMK AO2 SLP193 T01500139
                 53004 =
2018-09-20 03:53 METAR KUUU 200753Z AUTO 04007KT 10SM CLR 15/14 A3009 RMK AO2 SLP188 T01500139 =
2018-09-20 02:53 METAR KUUU 200653Z AUTO 03008KT 10SM CLR 15/14 A3010 RMK AO2 SLP189 T01500139 =
2018-09-20 01:53 METAR KUUU 200553Z AUTO 03006KT 10SM FEW025 15/13 A3010 RMK AO2 SLP189 T01500128
                 10161 20139 50008 =
2018-09-20 01:41 METAR KUUU 200541Z AUTO 03008KT 10SM SCT025 SCT030 15/13 A3010 RMK AO2 T01500133
                 =
2018-09-20 00:53 METAR KUUU 200453Z AUTO 36006KT 10SM BKN021 BKN026 15/13 A3011 RMK AO2 SLP193
                 T01500133 402170139 =
2018-09-19 23:53 METAR KUUU 200353Z AUTO 03007KT 10SM CLR 15/13 A3007 RMK AO2 SLP180 T01500128 =
2018-09-19 22:53 METAR KUUU 200253Z AUTO 36006KT 10SM SCT016 14/13 A3007 RMK AO2 SLP181 T01440133
                 50007 =
2018-09-19 22:48 METAR KUUU 200248Z AUTO 36006KT 10SM SCT016 14/13 A3008 RMK AO2 =

Support USWX by starting your Amazon purchase here.